sensor_id;sensor_type;location;lat;lon;timestamp;P1;durP1;ratioP1;P2;durP2;ratioP2
34489;SDS011;20730;49.372;7.324;2023-04-06T00:00:23;12.85;;;7.80;;
34489;SDS011;20730;49.372;7.324;2023-04-06T00:02:51;19.45;;;10.48;;
34489;SDS011;20730;49.372;7.324;2023-04-06T00:05:18;20.35;;;10.90;;
34489;SDS011;20730;49.372;7.324;2023-04-06T00:07:46;13.48;;;8.73;;
34489;SDS011;20730;49.372;7.324;2023-04-06T00:10:13;12.40;;;7.80;;
34489;SDS011;20730;49.372;7.324;2023-04-06T00:12:40;12.50;;;7.80;;
34489;SDS011;20730;49.372;7.324;2023-04-06T00:15:07;16.95;;;8.05;;
34489;SDS011;20730;49.372;7.324;2023-04-06T00:17:34;15.07;;;8.13;;
34489;SDS011;20730;49.372;7.324;2023-04-06T00:20:01;15.40;;;7.90;;
34489;SDS011;20730;49.372;7.324;2023-04-06T00:22:28;12.57;;;7.95;;
34489;SDS011;20730;49.372;7.324;2023-04-06T00:24:54;12.15;;;7.47;;
34489;SDS011;20730;49.372;7.324;2023-04-06T00:27:21;15.80;;;8.38;;
34489;SDS011;20730;49.372;7.324;2023-04-06T00:29:48;11.70;;;7.75;;
34489;SDS011;20730;49.372;7.324;2023-04-06T00:32:15;12.50;;;7.95;;
34489;SDS011;20730;49.372;7.324;2023-04-06T00:34:42;11.88;;;7.22;;
34489;SDS011;20730;49.372;7.324;2023-04-06T00:37:10;13.75;;;7.47;;
34489;SDS011;20730;49.372;7.324;2023-04-06T00:39:37;10.70;;;6.88;;
34489;SDS011;20730;49.372;7.324;2023-04-06T00:42:11;12.57;;;7.25;;
34489;SDS011;20730;49.372;7.324;2023-04-06T00:44:41;13.77;;;7.40;;
34489;SDS011;20730;49.372;7.324;2023-04-06T00:47:08;12.10;;;6.93;;
34489;SDS011;20730;49.372;7.324;2023-04-06T00:49:35;12.68;;;7.82;;
34489;SDS011;20730;49.372;7.324;2023-04-06T00:52:01;15.10;;;9.27;;
34489;SDS011;20730;49.372;7.324;2023-04-06T00:54:28;16.33;;;9.73;;
34489;SDS011;20730;49.372;7.324;2023-04-06T00:56:57;16.40;;;10.27;;
34489;SDS011;20730;49.372;7.324;2023-04-06T00:59:27;15.35;;;9.82;;
34489;SDS011;20730;49.372;7.324;2023-04-06T01:01:55;16.35;;;9.88;;
34489;SDS011;20730;49.372;7.324;2023-04-06T01:04:33;15.57;;;7.72;;
34489;SDS011;20730;49.372;7.324;2023-04-06T01:07:01;12.73;;;7.45;;
34489;SDS011;20730;49.372;7.324;2023-04-06T01:09:37;11.50;;;7.65;;
34489;SDS011;20730;49.372;7.324;2023-04-06T01:12:13;12.68;;;8.18;;
34489;SDS011;20730;49.372;7.324;2023-04-06T01:14:39;15.65;;;8.32;;
34489;SDS011;20730;49.372;7.324;2023-04-06T01:17:06;11.70;;;7.35;;
34489;SDS011;20730;49.372;7.324;2023-04-06T01:19:33;13.40;;;7.95;;
34489;SDS011;20730;49.372;7.324;2023-04-06T01:22:00;12.23;;;7.35;;
34489;SDS011;20730;49.372;7.324;2023-04-06T01:24:29;14.68;;;8.13;;
34489;SDS011;20730;49.372;7.324;2023-04-06T01:27:02;11.45;;;7.88;;
34489;SDS011;20730;49.372;7.324;2023-04-06T01:29:52;11.30;;;7.78;;
34489;SDS011;20730;49.372;7.324;2023-04-06T01:32:55;12.15;;;7.50;;
34489;SDS011;20730;49.372;7.324;2023-04-06T01:35:54;12.77;;;7.82;;
34489;SDS011;20730;49.372;7.324;2023-04-06T01:38:21;12.32;;;7.43;;
34489;SDS011;20730;49.372;7.324;2023-04-06T01:40:48;12.88;;;7.35;;
34489;SDS011;20730;49.372;7.324;2023-04-06T01:43:17;16.95;;;8.07;;
34489;SDS011;20730;49.372;7.324;2023-04-06T01:46:07;11.57;;;6.75;;
34489;SDS011;20730;49.372;7.324;2023-04-06T01:48:38;14.20;;;6.68;;
34489;SDS011;20730;49.372;7.324;2023-04-06T01:51:14;11.80;;;6.97;;
34489;SDS011;20730;49.372;7.324;2023-04-06T01:53:54;13.32;;;6.43;;
34489;SDS011;20730;49.372;7.324;2023-04-06T01:56:28;11.32;;;6.47;;
34489;SDS011;20730;49.372;7.324;2023-04-06T01:59:09;11.38;;;6.53;;
34489;SDS011;20730;49.372;7.324;2023-04-06T02:01:40;11.65;;;6.45;;
34489;SDS011;20730;49.372;7.324;2023-04-06T02:04:07;10.60;;;6.47;;
34489;SDS011;20730;49.372;7.324;2023-04-06T02:06:34;9.55;;;6.05;;
34489;SDS011;20730;49.372;7.324;2023-04-06T02:09:04;9.93;;;6.65;;
34489;SDS011;20730;49.372;7.324;2023-04-06T02:11:31;12.30;;;7.28;;
34489;SDS011;20730;49.372;7.324;2023-04-06T02:13:58;11.82;;;7.05;;
34489;SDS011;20730;49.372;7.324;2023-04-06T02:16:30;10.18;;;6.80;;
34489;SDS011;20730;49.372;7.324;2023-04-06T02:18:57;16.92;;;6.80;;
34489;SDS011;20730;49.372;7.324;2023-04-06T02:21:24;10.52;;;6.45;;
34489;SDS011;20730;49.372;7.324;2023-04-06T02:23:51;10.98;;;6.32;;
34489;SDS011;20730;49.372;7.324;2023-04-06T02:26:18;14.70;;;6.13;;
34489;SDS011;20730;49.372;7.324;2023-04-06T02:28:44;10.68;;;6.07;;
34489;SDS011;20730;49.372;7.324;2023-04-06T02:31:12;10.98;;;6.18;;
34489;SDS011;20730;49.372;7.324;2023-04-06T02:33:43;10.95;;;6.43;;
34489;SDS011;20730;49.372;7.324;2023-04-06T02:36:12;10.88;;;6.43;;
34489;SDS011;20730;49.372;7.324;2023-04-06T02:38:39;15.10;;;7.18;;
34489;SDS011;20730;49.372;7.324;2023-04-06T02:41:06;13.57;;;7.05;;
34489;SDS011;20730;49.372;7.324;2023-04-06T02:43:33;11.52;;;6.75;;
34489;SDS011;20730;49.372;7.324;2023-04-06T02:46:05;10.90;;;6.70;;
34489;SDS011;20730;49.372;7.324;2023-04-06T02:48:36;11.43;;;6.82;;
34489;SDS011;20730;49.372;7.324;2023-04-06T02:51:03;11.38;;;6.55;;
34489;SDS011;20730;49.372;7.324;2023-04-06T02:53:31;13.02;;;7.53;;
34489;SDS011;20730;49.372;7.324;2023-04-06T02:55:58;11.13;;;7.13;;
34489;SDS011;20730;49.372;7.324;2023-04-06T02:58:33;11.20;;;7.13;;
34489;SDS011;20730;49.372;7.324;2023-04-06T03:00:59;11.55;;;6.82;;
34489;SDS011;20730;49.372;7.324;2023-04-06T03:03:26;15.40;;;7.35;;
34489;SDS011;20730;49.372;7.324;2023-04-06T03:05:55;13.63;;;7.20;;
34489;SDS011;20730;49.372;7.324;2023-04-06T03:08:27;12.05;;;6.90;;
34489;SDS011;20730;49.372;7.324;2023-04-06T03:10:54;12.20;;;7.20;;
34489;SDS011;20730;49.372;7.324;2023-04-06T03:13:27;13.23;;;7.75;;
34489;SDS011;20730;49.372;7.324;2023-04-06T03:15:56;12.27;;;7.57;;
34489;SDS011;20730;49.372;7.324;2023-04-06T03:18:23;10.13;;;7.00;;
34489;SDS011;20730;49.372;7.324;2023-04-06T03:20:52;16.50;;;8.18;;
34489;SDS011;20730;49.372;7.324;2023-04-06T03:23:23;12.75;;;8.35;;
34489;SDS011;20730;49.372;7.324;2023-04-06T03:25:55;14.70;;;8.38;;
34489;SDS011;20730;49.372;7.324;2023-04-06T03:28:22;13.57;;;7.38;;
34489;SDS011;20730;49.372;7.324;2023-04-06T03:30:53;13.60;;;8.43;;
34489;SDS011;20730;49.372;7.324;2023-04-06T03:33:39;12.55;;;7.50;;
34489;SDS011;20730;49.372;7.324;2023-04-06T03:36:09;16.88;;;7.68;;
34489;SDS011;20730;49.372;7.324;2023-04-06T03:38:39;14.25;;;8.05;;
34489;SDS011;20730;49.372;7.324;2023-04-06T03:41:11;13.05;;;7.78;;
34489;SDS011;20730;49.372;7.324;2023-04-06T03:46:08;12.50;;;7.82;;
34489;SDS011;20730;49.372;7.324;2023-04-06T03:48:34;14.48;;;8.13;;
34489;SDS011;20730;49.372;7.324;2023-04-06T03:51:04;13.73;;;7.77;;
34489;SDS011;20730;49.372;7.324;2023-04-06T03:53:31;17.08;;;8.75;;
34489;SDS011;20730;49.372;7.324;2023-04-06T03:55:57;17.10;;;8.88;;
34489;SDS011;20730;49.372;7.324;2023-04-06T03:58:26;12.13;;;7.93;;
34489;SDS011;20730;49.372;7.324;2023-04-06T04:00:53;16.25;;;8.52;;
34489;SDS011;20730;49.372;7.324;2023-04-06T04:03:20;13.73;;;8.25;;
34489;SDS011;20730;49.372;7.324;2023-04-06T04:05:49;13.43;;;8.20;;
34489;SDS011;20730;49.372;7.324;2023-04-06T04:08:17;12.98;;;7.70;;
34489;SDS011;20730;49.372;7.324;2023-04-06T04:10:44;15.15;;;7.72;;
34489;SDS011;20730;49.372;7.324;2023-04-06T04:13:12;12.88;;;8.30;;
34489;SDS011;20730;49.372;7.324;2023-04-06T04:15:40;13.82;;;8.55;;
34489;SDS011;20730;49.372;7.324;2023-04-06T04:18:09;13.35;;;8.15;;
34489;SDS011;20730;49.372;7.324;2023-04-06T04:23:05;13.95;;;7.80;;
34489;SDS011;20730;49.372;7.324;2023-04-06T04:25:34;14.05;;;7.80;;
34489;SDS011;20730;49.372;7.324;2023-04-06T04:28:01;14.73;;;8.77;;
34489;SDS011;20730;49.372;7.324;2023-04-06T04:30:29;19.60;;;10.18;;
34489;SDS011;20730;49.372;7.324;2023-04-06T04:32:56;12.77;;;8.65;;
34489;SDS011;20730;49.372;7.324;2023-04-06T04:35:23;16.50;;;10.10;;
34489;SDS011;20730;49.372;7.324;2023-04-06T04:37:50;17.73;;;11.15;;
34489;SDS011;20730;49.372;7.324;2023-04-06T04:40:17;20.40;;;12.82;;
34489;SDS011;20730;49.372;7.324;2023-04-06T04:42:51;18.60;;;11.85;;
34489;SDS011;20730;49.372;7.324;2023-04-06T04:45:30;20.35;;;12.57;;
34489;SDS011;20730;49.372;7.324;2023-04-06T04:48:02;18.77;;;11.30;;
34489;SDS011;20730;49.372;7.324;2023-04-06T04:50:44;18.27;;;10.35;;
34489;SDS011;20730;49.372;7.324;2023-04-06T04:53:12;18.73;;;9.88;;
34489;SDS011;20730;49.372;7.324;2023-04-06T04:55:41;15.27;;;9.73;;
34489;SDS011;20730;49.372;7.324;2023-04-06T04:58:10;16.92;;;9.77;;
34489;SDS011;20730;49.372;7.324;2023-04-06T05:00:47;17.77;;;9.90;;
34489;SDS011;20730;49.372;7.324;2023-04-06T05:03:20;15.20;;;9.60;;
34489;SDS011;20730;49.372;7.324;2023-04-06T05:05:56;20.90;;;10.45;;
34489;SDS011;20730;49.372;7.324;2023-04-06T05:08:25;15.80;;;9.70;;
34489;SDS011;20730;49.372;7.324;2023-04-06T05:10:52;15.73;;;10.18;;
34489;SDS011;20730;49.372;7.324;2023-04-06T05:13:21;17.48;;;10.52;;
34489;SDS011;20730;49.372;7.324;2023-04-06T05:15:49;20.27;;;10.88;;
34489;SDS011;20730;49.372;7.324;2023-04-06T05:18:29;15.98;;;9.95;;
34489;SDS011;20730;49.372;7.324;2023-04-06T05:20:57;16.90;;;10.18;;
34489;SDS011;20730;49.372;7.324;2023-04-06T05:23:32;17.67;;;10.63;;
34489;SDS011;20730;49.372;7.324;2023-04-06T05:26:01;17.48;;;10.05;;
34489;SDS011;20730;49.372;7.324;2023-04-06T05:28:28;18.55;;;9.82;;
34489;SDS011;20730;49.372;7.324;2023-04-06T05:30:56;14.93;;;9.55;;
34489;SDS011;20730;49.372;7.324;2023-04-06T05:33:25;16.23;;;9.43;;
34489;SDS011;20730;49.372;7.324;2023-04-06T05:36:06;16.70;;;9.70;;
34489;SDS011;20730;49.372;7.324;2023-04-06T05:38:37;15.82;;;10.35;;
34489;SDS011;20730;49.372;7.324;2023-04-06T05:41:15;23.08;;;10.63;;
34489;SDS011;20730;49.372;7.324;2023-04-06T05:43:42;15.80;;;9.75;;
34489;SDS011;20730;49.372;7.324;2023-04-06T05:46:09;14.45;;;9.05;;
34489;SDS011;20730;49.372;7.324;2023-04-06T05:48:36;17.00;;;8.80;;
34489;SDS011;20730;49.372;7.324;2023-04-06T05:51:03;17.02;;;9.07;;
34489;SDS011;20730;49.372;7.324;2023-04-06T05:53:41;13.55;;;8.70;;
34489;SDS011;20730;49.372;7.324;2023-04-06T05:56:08;12.82;;;8.88;;
34489;SDS011;20730;49.372;7.324;2023-04-06T05:58:35;13.18;;;8.50;;
34489;SDS011;20730;49.372;7.324;2023-04-06T06:01:01;11.88;;;8.43;;
34489;SDS011;20730;49.372;7.324;2023-04-06T06:03:36;13.38;;;8.80;;
34489;SDS011;20730;49.372;7.324;2023-04-06T06:06:05;13.68;;;8.77;;
34489;SDS011;20730;49.372;7.324;2023-04-06T06:08:41;12.43;;;8.60;;
34489;SDS011;20730;49.372;7.324;2023-04-06T06:11:13;11.20;;;8.10;;
34489;SDS011;20730;49.372;7.324;2023-04-06T06:13:41;12.40;;;8.02;;
34489;SDS011;20730;49.372;7.324;2023-04-06T06:16:08;13.55;;;9.10;;
34489;SDS011;20730;49.372;7.324;2023-04-06T06:18:41;14.57;;;9.32;;
34489;SDS011;20730;49.372;7.324;2023-04-06T06:21:08;13.35;;;8.68;;
34489;SDS011;20730;49.372;7.324;2023-04-06T06:23:37;12.80;;;7.90;;
34489;SDS011;20730;49.372;7.324;2023-04-06T06:26:04;13.45;;;7.40;;
34489;SDS011;20730;49.372;7.324;2023-04-06T06:28:31;13.60;;;7.50;;
34489;SDS011;20730;49.372;7.324;2023-04-06T06:30:58;13.27;;;8.25;;
34489;SDS011;20730;49.372;7.324;2023-04-06T06:33:25;12.93;;;8.00;;
34489;SDS011;20730;49.372;7.324;2023-04-06T06:35:54;12.23;;;7.90;;
34489;SDS011;20730;49.372;7.324;2023-04-06T06:38:21;13.18;;;8.15;;
34489;SDS011;20730;49.372;7.324;2023-04-06T06:40:50;14.48;;;7.93;;
34489;SDS011;20730;49.372;7.324;2023-04-06T06:43:18;13.65;;;7.65;;
34489;SDS011;20730;49.372;7.324;2023-04-06T06:46:00;12.15;;;7.47;;
34489;SDS011;20730;49.372;7.324;2023-04-06T06:48:27;11.18;;;7.85;;
34489;SDS011;20730;49.372;7.324;2023-04-06T06:50:54;13.65;;;7.50;;
34489;SDS011;20730;49.372;7.324;2023-04-06T06:53:21;15.27;;;7.13;;
34489;SDS011;20730;49.372;7.324;2023-04-06T06:55:48;12.25;;;7.55;;
34489;SDS011;20730;49.372;7.324;2023-04-06T06:58:18;10.88;;;7.43;;
34489;SDS011;20730;49.372;7.324;2023-04-06T07:00:47;11.23;;;7.60;;
34489;SDS011;20730;49.372;7.324;2023-04-06T07:03:13;11.55;;;7.10;;
34489;SDS011;20730;49.372;7.324;2023-04-06T07:05:47;10.00;;;6.60;;
34489;SDS011;20730;49.372;7.324;2023-04-06T07:08:20;11.75;;;6.75;;
34489;SDS011;20730;49.372;7.324;2023-04-06T07:10:47;12.32;;;6.57;;
34489;SDS011;20730;49.372;7.324;2023-04-06T07:13:15;11.13;;;6.32;;
34489;SDS011;20730;49.372;7.324;2023-04-06T07:15:48;10.50;;;7.18;;
34489;SDS011;20730;49.372;7.324;2023-04-06T07:18:16;12.88;;;6.88;;
34489;SDS011;20730;49.372;7.324;2023-04-06T07:20:45;12.52;;;6.80;;
34489;SDS011;20730;49.372;7.324;2023-04-06T07:23:13;10.18;;;6.05;;
34489;SDS011;20730;49.372;7.324;2023-04-06T07:25:40;13.30;;;6.57;;
34489;SDS011;20730;49.372;7.324;2023-04-06T07:28:08;10.40;;;6.38;;
34489;SDS011;20730;49.372;7.324;2023-04-06T07:30:36;11.98;;;6.20;;
34489;SDS011;20730;49.372;7.324;2023-04-06T07:33:04;9.65;;;6.00;;
34489;SDS011;20730;49.372;7.324;2023-04-06T07:35:35;8.75;;;5.85;;
34489;SDS011;20730;49.372;7.324;2023-04-06T07:38:04;11.15;;;6.55;;
34489;SDS011;20730;49.372;7.324;2023-04-06T07:40:32;8.95;;;5.95;;
34489;SDS011;20730;49.372;7.324;2023-04-06T07:42:59;12.65;;;6.20;;
34489;SDS011;20730;49.372;7.324;2023-04-06T07:45:26;11.13;;;6.22;;
34489;SDS011;20730;49.372;7.324;2023-04-06T07:47:54;11.43;;;6.90;;
34489;SDS011;20730;49.372;7.324;2023-04-06T07:50:23;11.80;;;6.70;;
34489;SDS011;20730;49.372;7.324;2023-04-06T07:52:50;9.73;;;5.93;;
34489;SDS011;20730;49.372;7.324;2023-04-06T07:55:18;9.77;;;5.88;;
34489;SDS011;20730;49.372;7.324;2023-04-06T07:57:45;10.35;;;6.20;;
34489;SDS011;20730;49.372;7.324;2023-04-06T08:00:12;11.13;;;6.80;;
34489;SDS011;20730;49.372;7.324;2023-04-06T08:02:40;9.57;;;6.63;;
34489;SDS011;20730;49.372;7.324;2023-04-06T08:05:07;10.23;;;6.20;;
34489;SDS011;20730;49.372;7.324;2023-04-06T08:07:34;8.77;;;5.88;;
34489;SDS011;20730;49.372;7.324;2023-04-06T08:10:02;10.18;;;6.25;;
34489;SDS011;20730;49.372;7.324;2023-04-06T08:12:28;13.30;;;6.57;;
34489;SDS011;20730;49.372;7.324;2023-04-06T08:14:56;9.10;;;6.00;;
34489;SDS011;20730;49.372;7.324;2023-04-06T08:17:23;8.57;;;5.68;;
34489;SDS011;20730;49.372;7.324;2023-04-06T08:19:50;9.13;;;5.80;;
34489;SDS011;20730;49.372;7.324;2023-04-06T08:22:16;7.40;;;5.78;;
34489;SDS011;20730;49.372;7.324;2023-04-06T08:24:43;9.18;;;5.88;;
34489;SDS011;20730;49.372;7.324;2023-04-06T08:27:10;11.50;;;6.55;;
34489;SDS011;20730;49.372;7.324;2023-04-06T08:29:37;9.23;;;5.70;;
34489;SDS011;20730;49.372;7.324;2023-04-06T08:32:03;10.27;;;6.43;;
34489;SDS011;20730;49.372;7.324;2023-04-06T08:34:34;9.50;;;5.65;;
34489;SDS011;20730;49.372;7.324;2023-04-06T08:37:01;9.02;;;5.80;;
34489;SDS011;20730;49.372;7.324;2023-04-06T08:39:28;8.88;;;5.43;;
34489;SDS011;20730;49.372;7.324;2023-04-06T08:41:57;8.30;;;5.50;;
34489;SDS011;20730;49.372;7.324;2023-04-06T08:44:26;8.80;;;5.45;;
34489;SDS011;20730;49.372;7.324;2023-04-06T08:46:53;8.70;;;5.95;;
34489;SDS011;20730;49.372;7.324;2023-04-06T08:49:20;7.47;;;5.22;;
34489;SDS011;20730;49.372;7.324;2023-04-06T08:51:48;7.43;;;5.18;;
34489;SDS011;20730;49.372;7.324;2023-04-06T08:54:15;8.48;;;5.65;;
34489;SDS011;20730;49.372;7.324;2023-04-06T08:56:42;8.20;;;4.95;;
34489;SDS011;20730;49.372;7.324;2023-04-06T08:59:09;10.82;;;5.70;;
34489;SDS011;20730;49.372;7.324;2023-04-06T09:01:38;8.57;;;5.35;;
34489;SDS011;20730;49.372;7.324;2023-04-06T09:04:08;6.88;;;5.25;;
34489;SDS011;20730;49.372;7.324;2023-04-06T09:06:38;8.98;;;5.40;;
34489;SDS011;20730;49.372;7.324;2023-04-06T09:09:07;8.48;;;5.55;;
34489;SDS011;20730;49.372;7.324;2023-04-06T09:11:49;9.43;;;5.38;;
34489;SDS011;20730;49.372;7.324;2023-04-06T09:14:17;7.65;;;5.57;;
34489;SDS011;20730;49.372;7.324;2023-04-06T09:17:03;9.52;;;5.45;;
34489;SDS011;20730;49.372;7.324;2023-04-06T09:19:30;9.90;;;5.35;;
34489;SDS011;20730;49.372;7.324;2023-04-06T09:22:01;10.23;;;5.63;;
34489;SDS011;20730;49.372;7.324;2023-04-06T09:24:38;8.40;;;5.43;;
34489;SDS011;20730;49.372;7.324;2023-04-06T09:27:07;11.13;;;5.40;;
34489;SDS011;20730;49.372;7.324;2023-04-06T09:29:34;9.68;;;5.18;;
34489;SDS011;20730;49.372;7.324;2023-04-06T09:32:06;8.23;;;5.28;;
34489;SDS011;20730;49.372;7.324;2023-04-06T09:34:33;8.82;;;5.38;;
34489;SDS011;20730;49.372;7.324;2023-04-06T09:37:00;15.75;;;5.35;;
34489;SDS011;20730;49.372;7.324;2023-04-06T09:39:27;7.97;;;5.43;;
34489;SDS011;20730;49.372;7.324;2023-04-06T09:41:54;8.68;;;5.10;;
34489;SDS011;20730;49.372;7.324;2023-04-06T09:44:22;9.05;;;5.25;;
34489;SDS011;20730;49.372;7.324;2023-04-06T09:46:50;8.70;;;5.70;;
34489;SDS011;20730;49.372;7.324;2023-04-06T09:49:30;7.57;;;4.47;;
34489;SDS011;20730;49.372;7.324;2023-04-06T09:51:59;8.30;;;5.15;;
34489;SDS011;20730;49.372;7.324;2023-04-06T09:59:40;8.82;;;5.35;;
34489;SDS011;20730;49.372;7.324;2023-04-06T10:02:15;7.30;;;4.82;;
34489;SDS011;20730;49.372;7.324;2023-04-06T10:04:55;8.70;;;5.18;;
34489;SDS011;20730;49.372;7.324;2023-04-06T10:09:50;7.88;;;4.70;;
34489;SDS011;20730;49.372;7.324;2023-04-06T10:12:17;8.25;;;4.97;;
34489;SDS011;20730;49.372;7.324;2023-04-06T10:14:44;10.48;;;5.20;;
34489;SDS011;20730;49.372;7.324;2023-04-06T10:17:11;8.60;;;5.00;;
34489;SDS011;20730;49.372;7.324;2023-04-06T10:19:49;8.30;;;4.80;;
34489;SDS011;20730;49.372;7.324;2023-04-06T10:22:24;8.98;;;4.78;;
34489;SDS011;20730;49.372;7.324;2023-04-06T10:24:54;10.43;;;5.20;;
34489;SDS011;20730;49.372;7.324;2023-04-06T10:27:28;8.63;;;4.80;;
34489;SDS011;20730;49.372;7.324;2023-04-06T10:30:01;8.70;;;5.07;;
34489;SDS011;20730;49.372;7.324;2023-04-06T10:32:33;8.48;;;4.85;;
34489;SDS011;20730;49.372;7.324;2023-04-06T10:35:08;8.18;;;5.20;;
34489;SDS011;20730;49.372;7.324;2023-04-06T10:37:46;10.68;;;5.15;;
34489;SDS011;20730;49.372;7.324;2023-04-06T10:40:18;6.00;;;4.55;;
34489;SDS011;20730;49.372;7.324;2023-04-06T10:42:54;9.80;;;5.10;;
34489;SDS011;20730;49.372;7.324;2023-04-06T10:45:22;9.30;;;5.45;;
34489;SDS011;20730;49.372;7.324;2023-04-06T10:47:54;7.60;;;5.30;;
34489;SDS011;20730;49.372;7.324;2023-04-06T10:50:22;6.70;;;4.88;;
34489;SDS011;20730;49.372;7.324;2023-04-06T10:52:59;7.75;;;5.65;;
34489;SDS011;20730;49.372;7.324;2023-04-06T10:55:27;8.43;;;4.82;;
34489;SDS011;20730;49.372;7.324;2023-04-06T10:57:55;8.60;;;5.32;;
34489;SDS011;20730;49.372;7.324;2023-04-06T11:00:22;8.32;;;5.30;;
34489;SDS011;20730;49.372;7.324;2023-04-06T11:02:49;8.77;;;5.75;;
34489;SDS011;20730;49.372;7.324;2023-04-06T11:05:16;8.52;;;4.97;;
34489;SDS011;20730;49.372;7.324;2023-04-06T11:07:43;8.13;;;5.07;;
34489;SDS011;20730;49.372;7.324;2023-04-06T11:10:10;6.45;;;4.82;;
34489;SDS011;20730;49.372;7.324;2023-04-06T11:12:44;12.85;;;4.93;;
34489;SDS011;20730;49.372;7.324;2023-04-06T11:15:11;7.95;;;5.40;;
34489;SDS011;20730;49.372;7.324;2023-04-06T11:17:38;6.68;;;4.65;;
34489;SDS011;20730;49.372;7.324;2023-04-06T11:20:09;9.02;;;5.38;;
34489;SDS011;20730;49.372;7.324;2023-04-06T11:22:36;7.05;;;4.70;;
34489;SDS011;20730;49.372;7.324;2023-04-06T11:25:14;7.90;;;4.93;;
34489;SDS011;20730;49.372;7.324;2023-04-06T11:27:43;6.80;;;4.60;;
34489;SDS011;20730;49.372;7.324;2023-04-06T11:30:12;9.93;;;4.85;;
34489;SDS011;20730;49.372;7.324;2023-04-06T11:32:40;7.22;;;5.35;;
34489;SDS011;20730;49.372;7.324;2023-04-06T11:35:21;10.00;;;5.10;;
34489;SDS011;20730;49.372;7.324;2023-04-06T11:37:49;8.48;;;5.50;;
34489;SDS011;20730;49.372;7.324;2023-04-06T11:40:25;7.25;;;4.72;;
34489;SDS011;20730;49.372;7.324;2023-04-06T11:42:54;9.18;;;4.72;;
34489;SDS011;20730;49.372;7.324;2023-04-06T11:45:22;8.63;;;5.10;;
34489;SDS011;20730;49.372;7.324;2023-04-06T11:47:56;8.20;;;5.57;;
34489;SDS011;20730;49.372;7.324;2023-04-06T11:50:36;10.77;;;5.47;;
34489;SDS011;20730;49.372;7.324;2023-04-06T11:53:03;8.65;;;4.80;;
34489;SDS011;20730;49.372;7.324;2023-04-06T11:55:36;7.85;;;5.60;;
34489;SDS011;20730;49.372;7.324;2023-04-06T11:58:03;8.02;;;5.25;;
34489;SDS011;20730;49.372;7.324;2023-04-06T12:00:30;9.23;;;5.20;;
34489;SDS011;20730;49.372;7.324;2023-04-06T12:03:00;11.95;;;5.50;;
34489;SDS011;20730;49.372;7.324;2023-04-06T12:05:27;8.88;;;5.40;;
34489;SDS011;20730;49.372;7.324;2023-04-06T12:07:54;6.90;;;4.88;;
34489;SDS011;20730;49.372;7.324;2023-04-06T12:10:25;9.75;;;5.80;;
34489;SDS011;20730;49.372;7.324;2023-04-06T12:12:52;7.72;;;5.90;;
34489;SDS011;20730;49.372;7.324;2023-04-06T12:15:19;10.80;;;5.93;;
34489;SDS011;20730;49.372;7.324;2023-04-06T12:17:46;6.97;;;5.55;;
34489;SDS011;20730;49.372;7.324;2023-04-06T12:20:13;9.25;;;5.80;;
34489;SDS011;20730;49.372;7.324;2023-04-06T12:22:52;8.13;;;5.25;;
34489;SDS011;20730;49.372;7.324;2023-04-06T12:25:18;11.15;;;5.85;;
34489;SDS011;20730;49.372;7.324;2023-04-06T12:27:45;13.77;;;6.70;;
34489;SDS011;20730;49.372;7.324;2023-04-06T12:30:12;9.60;;;5.88;;
34489;SDS011;20730;49.372;7.324;2023-04-06T12:32:39;13.02;;;6.28;;
34489;SDS011;20730;49.372;7.324;2023-04-06T12:35:06;9.05;;;5.32;;
34489;SDS011;20730;49.372;7.324;2023-04-06T12:37:35;12.25;;;6.53;;
34489;SDS011;20730;49.372;7.324;2023-04-06T12:40:03;9.38;;;5.50;;
34489;SDS011;20730;49.372;7.324;2023-04-06T12:42:30;10.25;;;6.20;;
34489;SDS011;20730;49.372;7.324;2023-04-06T12:44:57;8.88;;;5.43;;
34489;SDS011;20730;49.372;7.324;2023-04-06T12:47:25;10.80;;;5.97;;
34489;SDS011;20730;49.372;7.324;2023-04-06T12:49:53;9.70;;;5.85;;
34489;SDS011;20730;49.372;7.324;2023-04-06T12:52:20;9.45;;;5.32;;
34489;SDS011;20730;49.372;7.324;2023-04-06T12:54:47;9.02;;;5.82;;
34489;SDS011;20730;49.372;7.324;2023-04-06T12:57:16;10.60;;;5.40;;
34489;SDS011;20730;49.372;7.324;2023-04-06T12:59:43;10.60;;;6.50;;
34489;SDS011;20730;49.372;7.324;2023-04-06T13:02:11;9.73;;;5.32;;
34489;SDS011;20730;49.372;7.324;2023-04-06T13:04:38;10.50;;;5.70;;
34489;SDS011;20730;49.372;7.324;2023-04-06T13:07:05;8.32;;;5.00;;
34489;SDS011;20730;49.372;7.324;2023-04-06T13:09:31;9.65;;;5.80;;
34489;SDS011;20730;49.372;7.324;2023-04-06T13:11:58;10.27;;;5.50;;
34489;SDS011;20730;49.372;7.324;2023-04-06T13:14:25;9.73;;;5.43;;
34489;SDS011;20730;49.372;7.324;2023-04-06T13:16:52;9.32;;;5.88;;
34489;SDS011;20730;49.372;7.324;2023-04-06T13:19:19;9.98;;;5.00;;
34489;SDS011;20730;49.372;7.324;2023-04-06T13:21:46;9.57;;;5.28;;
34489;SDS011;20730;49.372;7.324;2023-04-06T13:24:13;10.55;;;6.00;;
34489;SDS011;20730;49.372;7.324;2023-04-06T13:26:43;10.70;;;5.97;;
34489;SDS011;20730;49.372;7.324;2023-04-06T13:29:10;11.30;;;5.40;;
34489;SDS011;20730;49.372;7.324;2023-04-06T13:31:36;10.70;;;5.30;;
34489;SDS011;20730;49.372;7.324;2023-04-06T13:34:04;8.93;;;5.25;;
34489;SDS011;20730;49.372;7.324;2023-04-06T13:36:31;9.70;;;5.45;;
34489;SDS011;20730;49.372;7.324;2023-04-06T13:38:58;10.73;;;5.22;;
34489;SDS011;20730;49.372;7.324;2023-04-06T13:41:25;9.07;;;5.25;;
34489;SDS011;20730;49.372;7.324;2023-04-06T13:43:52;10.18;;;5.72;;
34489;SDS011;20730;49.372;7.324;2023-04-06T13:46:19;9.77;;;5.80;;
34489;SDS011;20730;49.372;7.324;2023-04-06T13:48:46;9.40;;;5.65;;
34489;SDS011;20730;49.372;7.324;2023-04-06T13:51:13;14.55;;;5.20;;
34489;SDS011;20730;49.372;7.324;2023-04-06T13:53:41;8.30;;;5.30;;
34489;SDS011;20730;49.372;7.324;2023-04-06T13:56:08;8.65;;;5.45;;
34489;SDS011;20730;49.372;7.324;2023-04-06T13:58:36;9.55;;;5.22;;
34489;SDS011;20730;49.372;7.324;2023-04-06T14:01:03;7.68;;;4.63;;
34489;SDS011;20730;49.372;7.324;2023-04-06T14:03:34;6.65;;;4.57;;
34489;SDS011;20730;49.372;7.324;2023-04-06T14:06:09;7.57;;;4.40;;
34489;SDS011;20730;49.372;7.324;2023-04-06T14:08:56;7.60;;;4.00;;
34489;SDS011;20730;49.372;7.324;2023-04-06T14:11:23;5.57;;;3.83;;
34489;SDS011;20730;49.372;7.324;2023-04-06T14:13:50;6.57;;;4.13;;
34489;SDS011;20730;49.372;7.324;2023-04-06T14:16:17;5.82;;;3.33;;
34489;SDS011;20730;49.372;7.324;2023-04-06T14:18:46;5.75;;;3.33;;
34489;SDS011;20730;49.372;7.324;2023-04-06T14:21:12;6.53;;;3.78;;
34489;SDS011;20730;49.372;7.324;2023-04-06T14:23:39;9.15;;;4.05;;
34489;SDS011;20730;49.372;7.324;2023-04-06T14:26:07;8.25;;;4.53;;
34489;SDS011;20730;49.372;7.324;2023-04-06T14:28:34;7.15;;;4.57;;
34489;SDS011;20730;49.372;7.324;2023-04-06T14:31:02;9.23;;;5.25;;
34489;SDS011;20730;49.372;7.324;2023-04-06T14:33:35;8.13;;;5.30;;
34489;SDS011;20730;49.372;7.324;2023-04-06T14:36:03;8.30;;;5.97;;
34489;SDS011;20730;49.372;7.324;2023-04-06T14:38:31;9.25;;;6.00;;
34489;SDS011;20730;49.372;7.324;2023-04-06T14:40:58;8.32;;;5.63;;
34489;SDS011;20730;49.372;7.324;2023-04-06T14:43:25;7.88;;;4.93;;
34489;SDS011;20730;49.372;7.324;2023-04-06T14:45:52;7.78;;;5.22;;
34489;SDS011;20730;49.372;7.324;2023-04-06T14:48:19;9.75;;;5.15;;
34489;SDS011;20730;49.372;7.324;2023-04-06T14:50:52;9.52;;;5.47;;
34489;SDS011;20730;49.372;7.324;2023-04-06T14:53:19;10.18;;;5.40;;
34489;SDS011;20730;49.372;7.324;2023-04-06T14:55:46;8.48;;;5.78;;
34489;SDS011;20730;49.372;7.324;2023-04-06T14:58:13;8.52;;;5.20;;
34489;SDS011;20730;49.372;7.324;2023-04-06T15:00:40;9.38;;;5.28;;
34489;SDS011;20730;49.372;7.324;2023-04-06T15:03:07;8.25;;;5.85;;